• Join FlightAware (Why Join?)
  • Login
  • US Flag 
Rudolph Flight #1: Arrived! 
08:28AM EST


 

Airport Tracker/Info


-or-


 

Live Flight TrackerFlight Track Log ✈ AIP5010 ✈ 27-Mar-2014 ✈ KGTF - KBIL

Flight Track Log - Related Links

Times and Time Zones

All times are in EDT time to prevent confusion due to time zone crossing. See the AIP5010 flight status page for this flight to view local times or setup timezone preferences in your user account.

Time Position Orientation Groundspeed Altitude Reporting Facility
EDT Latitude Longitude Course Direction KTS MPH feet Rate Location/Type
01:42AM 47.4264 -111.3244 134° Southeast 167 192 8,500  Level Salt Lake Center
01:43AM 47.3797 -111.2892 153° Southeast 179 206 10,900 2,280 Climbing Salt Lake Center
01:44AM 47.3228 -111.2231 142° Southeast 207 238 13,200 1,740 Climbing Salt Lake Center
01:45AM 47.2808 -111.1542 132° Southeast 219 252 14,500 1,380 Climbing Salt Lake Center
01:46AM 47.2887 -111.0277 126° Southeast  Level Estimated
01:46AM 47.2378 -111.0808 131° Southeast 229 264 16,100  Level Salt Lake Center
01:47AM 47.1947 -111.0019 129° Southeast 241 277 17,000 480 Climbing Salt Lake Center
01:48AM 47.1519 -110.9122 125° Southeast 258 297 17,100 -120 Climbing Salt Lake Center
01:49AM 47.1036 -110.8203 128° Southeast 272 313 16,800  Descending Salt Lake Center
01:50AM 47.0556 -110.7303 128° Southeast 278 320 17,100 60 Climbing Salt Lake Center
01:51AM 47.0072 -110.6414 129° Southeast 278 320 17,000  Descending Salt Lake Center
01:52AM 46.9556 -110.5558 131° Southeast 279 321 17,100 -60 Climbing Salt Lake Center
01:53AM 46.8908 -110.4889 145° Southeast 280 322 16,900  Descending Salt Lake Center
01:54AM 46.8456 -110.3936 125° Southeast 281 323 17,100  Climbing Salt Lake Center
01:55AM 46.7989 -110.3011 126° Southeast 282 325 17,000 -60 Descending Salt Lake Center
01:56AM 46.7481 -110.2131 130° Southeast 283 326 17,000  Level Salt Lake Center
01:57AM 46.6953 -110.1150 128° Southeast 283 326 17,000  Level Salt Lake Center
01:58AM 46.6444 -110.0222 129° Southeast 287 330 17,000  Level Salt Lake Center
01:59AM 46.5922 -109.9328 130° Southeast 290 334 17,000 -60 Level Salt Lake Center
02:00AM 46.5439 -109.8378 126° Southeast 290 334 16,900 -180 Descending Salt Lake Center
02:01AM 46.4883 -109.7503 133° Southeast 293 337 16,700 -360 Descending Salt Lake Center
02:02AM 46.4233 -109.6511 134° Southeast 302 348 16,200 -300 Descending Salt Lake Center
02:03AM 46.3742 -109.5556 127° Southeast 301 346 16,200 -120 Level Salt Lake Center
02:04AM 46.3233 -109.4619 128° Southeast 299 344 16,000 -60 Descending Salt Lake Center
02:05AM 46.2697 -109.3619 128° Southeast 298 343 16,100 -120 Climbing Salt Lake Center
02:06AM 46.2192 -109.2669 128° Southeast 297 342 15,800 -600 Descending Salt Lake Center
02:07AM 46.1661 -109.1700 128° Southeast 311 358 14,900 -720 Descending Salt Lake Center
02:08AM 46.1136 -109.0736 128° Southeast 311 358 14,400 -780 Descending Salt Lake Center
02:09AM 46.0544 -108.9692 129° Southeast 311 358 13,400 -1,440 Descending Salt Lake Center
02:10AM 45.9981 -108.8694 129° Southeast 321 369 11,600 -1,860 Descending Salt Lake Center
02:11AM 45.9453 -108.7697 127° Southeast 321 369 9,700 -1,920 Descending Salt Lake Center
02:12AM 45.8911 -108.6750 129° Southeast 316 364 7,800 -1,740 Descending Salt Lake Center
02:13AM 45.8511 -108.5814 122° Southeast 276 318 6,200 -1,320 Descending Salt Lake Center
02:14AM 45.8189 -108.4950 118° Southeast 243 280 5,200 -1,200 Descending Salt Lake Center
02:15AM 45.7981 -108.5028 195° South 169 194 3,800 -1,440 Descending Salt Lake Center
02:17AM 45.8000 -108.5333 306° West  Level FlightAware Approximate
02:24AM 45.8077 -108.5429 306° West  Level Estimated